Winthrop, WA (98862)

5:02 AM PDT on August 29, 2014 (GMT -0700)
Methow Valley-Twin Lakes | Change Station
CLOSE
Current Station
Personal Weather Station
Location: Winthrop, WA
Elevation: 1893 ft
Nearby Weather Stations

Elev 1893 ft 48.46 °N, 120.18 °W | Updated 16 seconds ago

Partly Cloudy
Partly Cloudy
53.6 °F
Feels Like 53.6 °F
N
1.1
Wind Variable Wind from West
Gusts 1.3 mph

Today
High -- | Low -- °F
--% Chance of Precip.
Yesterday
High -- | Low -- °F
Precip. -- in
6:14 AM 7:48 PM
Waxing Crescent, 14% visible
Pressure 29.89 in
Visibility 10.0 miles
Clouds Clear
Dew Point 38 °F
Humidity 56%
Rainfall 0.00 in
Snow Depth Not available.
UV 0 out of 12
Pollen .80 out of 12
Air Quality Not available.
Flu Activity Not available.
METAR KOMK 291153Z AUTO 36007KT 10SM CLR 14/09 A2990 RMK AO2 SLP120 T01440094 10217 20144 56005

More Conditions Fewer Conditions

Pressure 29.89 in
Visibility 10.0 miles
Clouds Clear
Dew Point 38 °F
Humidity 56%
Rainfall 0.00 in
Snow Depth Not available.
UV 0 out of 12
Pollen .80 out of 12
Air Quality Not available.
Flu Activity Not available.
METAR KOMK 291153Z AUTO 36007KT 10SM CLR 14/09 A2990 RMK AO2 SLP120 T01440094 10217 20144 56005

More Conditions Fewer Conditions

10-Day Weather Forecast

Almanac

Astronomy

Aug. 29, 2014 Rise Set
Actual Time 6:14 AM PDT 7:48 PM PDT
Civil Twilight 5:41 AM PDT 8:20 PM PDT
Nautical Twilight 5:01 AM PDT 9:00 PM PDT
Astronomical Twilight 4:17 AM PDT 9:44 PM PDT
Moon 10:30 AM PDT 9:25 PM PDT
Length of Visible Light 14h 39m
Length of Day
13h 34m
Tomorrow will be 3m 23s shorter.
Waxing Crescent, 14% of the Moon is Illuminated
Today
Waxing Crescent
Sep 2
First Quarter
Sep 8
Full
Sep 15
Last Quarter
Sep 24
New

Today's Extremes

State Highs State Lows

Community

WunderPhotos

Upload Photos

1,748,214 photos uploaded!

Nearby

Snow Depth

Station Depth Elevation
Rainy Pass 0 in 4780 ft
Harts Pass 0 in 6500 ft
Lyman Lake 0 in 5900 ft
Moses Mountain 1 in 5300 ft
Stevens Pass 0 in 4070 ft

Earthquake Activity

City Distance Mag. Time & Date
No recent earthquake activity has been reported nearby.
Minimum magnitude displayed is 2.5.

Coastal Water Temperatures

Place Temperature
No Stations Reporting

Nearby Weather Stations